createdAt,value
2018-08-11T00:04:12.313Z,14.01
2018-08-11T00:09:21.781Z,14.07
2018-08-11T00:14:30.752Z,14.00
2018-08-11T00:19:39.619Z,13.85
2018-08-11T00:24:48.251Z,13.78
2018-08-11T00:29:57.323Z,13.88
2018-08-11T00:35:08.197Z,13.94
2018-08-11T00:40:18.780Z,13.98
2018-08-11T00:45:27.649Z,13.89
2018-08-11T00:50:36.748Z,13.85
2018-08-11T00:55:45.700Z,13.86
2018-08-11T01:00:55.072Z,13.68
2018-08-11T01:06:04.105Z,13.36
2018-08-11T01:11:13.191Z,13.16
2018-08-11T01:16:22.386Z,13.02
2018-08-11T01:21:31.928Z,13.00
2018-08-11T01:26:41.405Z,13.20
2018-08-11T01:31:50.608Z,13.07
2018-08-11T01:36:59.984Z,12.91
2018-08-11T01:42:09.195Z,12.74
2018-08-11T01:47:18.658Z,12.58
2018-08-11T01:52:27.975Z,12.54
2018-08-11T01:57:37.386Z,12.51
2018-08-11T02:02:46.144Z,12.44
2018-08-11T02:07:54.885Z,12.43
2018-08-11T02:13:05.187Z,12.60
2018-08-11T02:18:14.291Z,12.89
2018-08-11T02:23:23.279Z,13.10
2018-08-11T02:28:32.288Z,13.18
2018-08-11T02:33:41.915Z,13.21
2018-08-11T02:38:51.571Z,13.17
2018-08-11T02:44:01.755Z,13.02
2018-08-11T02:49:11.244Z,12.85
2018-08-11T02:54:20.396Z,12.81
2018-08-11T02:59:29.394Z,12.70
2018-08-11T03:04:38.756Z,12.46
2018-08-11T03:09:47.629Z,12.36
2018-08-11T03:14:56.493Z,12.22
2018-08-11T03:20:08.528Z,12.16
2018-08-11T03:25:17.769Z,12.16
2018-08-11T03:30:26.872Z,12.28
2018-08-11T03:35:36.009Z,12.40
2018-08-11T03:40:45.186Z,12.44
2018-08-11T03:45:54.496Z,12.48
2018-08-11T03:51:03.704Z,12.61
2018-08-11T03:56:13.264Z,12.99
2018-08-11T04:01:22.173Z,13.38
2018-08-11T04:06:44.462Z,13.54
2018-08-11T04:12:00.532Z,13.89
2018-08-11T04:17:11.105Z,14.27
2018-08-11T04:22:20.571Z,14.40
2018-08-11T04:27:30.068Z,14.46
2018-08-11T04:32:39.282Z,14.51
2018-08-11T04:37:48.819Z,14.64
2018-08-11T04:42:58.170Z,15.00
2018-08-11T04:48:07.465Z,15.46
2018-08-11T04:53:16.398Z,15.48
2018-08-11T04:58:25.931Z,15.40
2018-08-11T05:03:35.512Z,15.44
2018-08-11T05:08:44.725Z,15.71
2018-08-11T05:13:54.172Z,16.23
2018-08-11T05:19:03.059Z,16.67
2018-08-11T05:24:12.228Z,17.08
2018-08-11T05:29:21.188Z,17.37
2018-08-11T05:34:30.546Z,17.48
2018-08-11T05:39:39.603Z,17.54
2018-08-11T05:44:48.257Z,17.47
2018-08-11T05:49:57.740Z,17.43
2018-08-11T05:55:06.835Z,17.62
2018-08-11T06:00:15.920Z,18.02
2018-08-11T06:05:25.196Z,18.10
2018-08-11T06:10:34.513Z,18.52
2018-08-11T06:15:43.159Z,19.91
2018-08-11T06:20:52.399Z,20.96
2018-08-11T06:26:01.584Z,22.36
2018-08-11T06:31:10.406Z,23.24
2018-08-11T06:36:19.922Z,24.90
2018-08-11T06:41:28.938Z,28.18
2018-08-11T06:46:38.108Z,25.86
2018-08-11T06:51:47.708Z,23.93
2018-08-11T06:56:56.552Z,22.32
2018-08-11T07:02:05.999Z,22.17
2018-08-11T07:07:14.859Z,22.87
2018-08-11T07:12:24.308Z,23.58
2018-08-11T07:17:33.249Z,22.95
2018-08-11T07:22:42.191Z,23.75
2018-08-11T07:27:51.864Z,24.47
2018-08-11T07:33:00.537Z,23.70
2018-08-11T07:38:10.052Z,23.22
2018-08-11T07:43:19.530Z,23.08
2018-08-11T07:48:29.248Z,23.15
2018-08-11T07:53:38.075Z,22.91
2018-08-11T07:58:47.445Z,23.10
2018-08-11T08:03:56.582Z,23.60
2018-08-11T08:09:08.145Z,23.61
2018-08-11T08:14:17.689Z,23.98
2018-08-11T08:19:27.411Z,24.33
2018-08-11T08:24:36.382Z,24.80
2018-08-11T08:29:45.458Z,25.03
2018-08-11T08:34:54.999Z,24.10
2018-08-11T08:40:04.241Z,24.71
2018-08-11T08:45:13.317Z,24.05
2018-08-11T08:50:22.906Z,23.96
2018-08-11T08:55:32.416Z,23.63
2018-08-11T09:00:41.574Z,25.10
2018-08-11T09:05:51.060Z,26.87
2018-08-11T09:11:01.988Z,30.24
2018-08-11T09:16:11.258Z,27.77
2018-08-11T09:21:20.757Z,25.87
2018-08-11T09:26:29.859Z,23.04
2018-08-11T09:31:39.147Z,23.65
2018-08-11T09:36:48.304Z,23.58
2018-08-11T09:41:57.396Z,22.83
2018-08-11T09:47:07.025Z,22.57
2018-08-11T09:52:16.688Z,22.59
2018-08-11T09:57:25.693Z,22.42
2018-08-11T10:02:34.757Z,23.53
2018-08-11T10:07:43.810Z,24.52
2018-08-11T10:12:52.459Z,25.21
2018-08-11T10:18:01.325Z,24.99
2018-08-11T10:23:10.678Z,24.27
2018-08-11T10:28:19.256Z,23.54
2018-08-11T10:33:28.500Z,22.07
2018-08-11T10:38:37.704Z,21.38
2018-08-11T10:43:46.547Z,21.28
2018-08-11T10:48:55.808Z,22.23
2018-08-11T10:54:05.457Z,24.34
2018-08-11T10:59:15.225Z,25.12
2018-08-11T11:04:24.788Z,23.24
2018-08-11T11:09:34.070Z,23.96
2018-08-11T11:14:43.403Z,25.54
2018-08-11T11:19:52.374Z,24.86
2018-08-11T11:25:01.540Z,25.05
2018-08-11T11:30:10.648Z,23.70
2018-08-11T11:35:20.351Z,24.03
2018-08-11T11:40:29.791Z,24.15
2018-08-11T11:45:38.583Z,23.77
2018-08-11T11:50:48.695Z,24.20
2018-08-11T11:55:58.053Z,23.95
2018-08-11T12:01:06.936Z,24.02
2018-08-11T12:06:16.903Z,22.65
2018-08-11T12:11:25.602Z,24.10
2018-08-11T12:16:35.171Z,23.64
2018-08-11T12:21:44.498Z,23.79
2018-08-11T12:26:55.083Z,24.85
2018-08-11T12:32:04.651Z,25.61
2018-08-11T12:37:13.660Z,25.84
2018-08-11T12:42:23.020Z,25.38
2018-08-11T12:47:31.829Z,26.01
2018-08-11T12:52:42.535Z,24.86
2018-08-11T12:57:51.565Z,25.15
2018-08-11T13:03:00.370Z,25.40
2018-08-11T13:08:09.831Z,25.36
2018-08-11T13:13:18.945Z,25.79
2018-08-11T13:18:28.256Z,25.90
2018-08-11T13:23:37.144Z,24.85
2018-08-11T13:28:45.856Z,25.63
2018-08-11T13:33:54.992Z,25.92
2018-08-11T13:39:06.988Z,24.46
2018-08-11T13:44:16.025Z,23.79
2018-08-11T13:49:25.741Z,24.85
2018-08-11T13:54:35.299Z,25.18
2018-08-11T13:59:44.203Z,25.00
2018-08-11T14:04:53.269Z,24.41
2018-08-11T14:10:02.458Z,24.65
2018-08-11T14:15:11.669Z,25.40
2018-08-11T14:20:20.652Z,25.22
2018-08-11T14:25:29.617Z,25.48
2018-08-11T14:30:38.280Z,25.08
2018-08-11T14:35:47.579Z,24.51
2018-08-11T14:40:56.521Z,24.35
2018-08-11T14:46:06.279Z,24.49
2018-08-11T14:51:17.392Z,25.12
2018-08-11T14:56:33.668Z,25.35
2018-08-11T15:01:43.102Z,24.59
2018-08-11T15:06:52.751Z,22.99
2018-08-11T15:12:01.959Z,22.84
2018-08-11T15:17:11.142Z,23.59
2018-08-11T15:22:20.380Z,23.04
2018-08-11T15:27:28.973Z,23.78
2018-08-11T15:32:38.477Z,23.89
2018-08-11T15:37:47.691Z,23.11
2018-08-11T15:42:56.406Z,23.65
2018-08-11T15:48:05.694Z,23.45
2018-08-11T15:53:15.054Z,24.17
2018-08-11T15:58:23.963Z,22.96
2018-08-11T16:03:32.698Z,23.46
2018-08-11T16:08:41.776Z,23.35
2018-08-11T16:13:51.182Z,23.56
2018-08-11T16:19:00.772Z,23.60
2018-08-11T16:24:11.719Z,23.97
2018-08-11T16:29:22.164Z,23.79
2018-08-11T16:34:32.348Z,23.61
2018-08-11T16:39:51.627Z,23.47
2018-08-11T16:45:00.806Z,23.32
2018-08-11T16:50:15.325Z,22.24
2018-08-11T16:55:26.446Z,22.10
2018-08-11T17:00:36.820Z,22.20
2018-08-11T17:05:47.297Z,22.11
2018-08-11T17:10:56.722Z,21.97
2018-08-11T17:16:06.686Z,21.54
2018-08-11T17:21:15.942Z,21.75
2018-08-11T17:31:33.301Z,21.37
2018-08-11T17:36:42.742Z,21.38
2018-08-11T17:41:52.208Z,21.55
2018-08-11T17:47:01.765Z,21.03
2018-08-11T17:52:10.748Z,20.92
2018-08-11T17:57:19.533Z,20.68
2018-08-11T18:02:29.017Z,20.38
2018-08-11T18:07:38.331Z,20.25
2018-08-11T18:12:47.909Z,20.17
2018-08-11T18:17:56.972Z,19.77
2018-08-11T18:23:06.603Z,19.56
2018-08-11T18:28:15.717Z,19.19
2018-08-11T18:33:24.449Z,18.81
2018-08-11T18:38:33.565Z,18.69
2018-08-11T18:43:42.738Z,18.67
2018-08-11T18:48:52.205Z,18.64
2018-08-11T18:54:01.156Z,18.71
2018-08-11T18:59:10.589Z,18.75
2018-08-11T19:04:20.822Z,18.78
2018-08-11T19:09:29.932Z,18.72
2018-08-11T19:14:38.798Z,18.77
2018-08-11T19:19:48.564Z,18.71
2018-08-11T19:24:57.656Z,18.55
2018-08-11T19:30:08.164Z,18.26
2018-08-11T19:35:17.946Z,18.04
2018-08-11T19:40:27.273Z,17.61
2018-08-11T19:45:37.190Z,17.52
2018-08-11T19:50:45.767Z,17.44
2018-08-11T19:55:55.724Z,17.23
2018-08-11T20:01:05.989Z,16.82
2018-08-11T20:06:16.236Z,16.68
2018-08-11T20:11:25.308Z,16.65
2018-08-11T20:16:35.212Z,16.57
2018-08-11T20:21:43.849Z,16.52
2018-08-11T20:26:54.225Z,16.44
2018-08-11T20:32:04.419Z,16.32
2018-08-11T20:37:14.127Z,16.25
2018-08-11T20:42:33.735Z,16.18
2018-08-11T20:47:43.714Z,16.32
2018-08-11T20:52:53.289Z,16.28
2018-08-11T20:58:02.335Z,16.03
2018-08-11T21:03:11.339Z,15.95
2018-08-11T21:08:20.422Z,15.98
2018-08-11T21:13:29.203Z,15.98
2018-08-11T21:18:38.311Z,15.94
2018-08-11T21:23:47.957Z,15.77
2018-08-11T21:28:56.747Z,15.75
2018-08-11T21:34:06.248Z,15.77
2018-08-11T21:39:15.289Z,15.70
2018-08-11T21:44:27.917Z,15.60
2018-08-11T21:49:36.690Z,15.49
2018-08-11T21:54:46.820Z,15.33
2018-08-11T22:05:08.593Z,14.95
2018-08-11T22:10:17.554Z,15.00
2018-08-11T22:15:27.136Z,15.19
2018-08-11T22:20:37.530Z,15.18
2018-08-11T22:25:46.920Z,15.13
2018-08-11T22:30:56.768Z,15.11
2018-08-11T22:36:06.406Z,15.31
2018-08-11T22:41:16.039Z,15.22
2018-08-11T22:46:25.203Z,15.17
2018-08-11T22:51:34.329Z,15.01
2018-08-11T22:56:43.255Z,14.98
2018-08-11T23:01:52.398Z,14.92
2018-08-11T23:07:01.884Z,14.86
2018-08-11T23:12:11.649Z,14.67
2018-08-11T23:17:20.537Z,14.56
2018-08-11T23:22:29.750Z,14.43
2018-08-11T23:27:39.519Z,14.36
2018-08-11T23:32:48.365Z,14.19
2018-08-11T23:37:57.568Z,13.97
2018-08-11T23:43:06.632Z,13.81
2018-08-11T23:48:15.664Z,13.55
2018-08-11T23:53:24.924Z,13.24
2018-08-11T23:58:34.304Z,13.11
